Time,TemperatureF,DewpointF,PressureIn,WindDirection,WindDirectionDegrees,WindSpeedMPH,WindSpeedGustMPH,Humidity,HourlyPrecipIn,Conditions,Clouds,dailyrainin,SolarRadiationWatts/m^2,SoftwareType,DateUTC
2013-05-09 00:02:00,55.2,54.1,30.08,East,82,2.0,3.0,96,0.00,,,0.00,0.0,meteohub,2013-05-09 10:02:00,
2013-05-09 00:07:00,55.2,53.8,30.08,East,86,2.0,5.0,95,0.00,,,0.00,0.0,meteohub,2013-05-09 10:07:00,
2013-05-09 00:12:00,55.2,53.8,30.08,East,100,1.0,5.0,95,0.00,,,0.00,0.0,meteohub,2013-05-09 10:12:00,
2013-05-09 00:17:00,55.0,53.6,30.08,East,90,3.0,5.0,95,0.00,,,0.00,0.0,meteohub,2013-05-09 10:17:00,
2013-05-09 00:22:00,55.0,54.0,30.08,ESE,103,1.0,5.0,96,0.00,,,0.00,0.0,meteohub,2013-05-09 10:22:00,
2013-05-09 00:27:00,55.0,53.6,30.07,East,89,2.0,5.0,95,0.00,,,0.00,0.0,meteohub,2013-05-09 10:27:00,
2013-05-09 00:32:00,54.9,53.4,30.07,East,93,1.0,5.0,95,0.00,,,0.00,0.0,meteohub,2013-05-09 10:32:00,
2013-05-09 00:37:00,54.7,53.2,30.07,East,94,1.0,5.0,95,0.00,,,0.00,0.0,meteohub,2013-05-09 10:37:00,
2013-05-09 00:42:00,54.3,52.9,30.07,East,94,2.0,3.0,95,0.00,,,0.00,0.0,meteohub,2013-05-09 10:42:00,
2013-05-09 00:47:00,54.5,53.1,30.07,ENE,77,1.0,5.0,95,0.00,,,0.00,0.0,meteohub,2013-05-09 10:47:00,
2013-05-09 00:52:00,54.3,52.7,30.07,East,94,1.0,5.0,94,0.00,,,0.00,0.0,meteohub,2013-05-09 10:52:00,
2013-05-09 00:57:00,54.1,52.7,30.07,East,84,3.0,5.0,95,0.00,,,0.00,0.0,meteohub,2013-05-09 10:57:00,
2013-05-09 01:02:00,54.1,52.5,30.06,East,86,1.0,5.0,94,0.00,,,0.00,0.0,meteohub,2013-05-09 11:02:00,
2013-05-09 01:07:00,54.1,52.5,30.06,East,88,1.0,6.0,94,0.00,,,0.00,0.0,meteohub,2013-05-09 11:07:00,
2013-05-09 01:12:00,54.0,52.3,30.06,East,90,3.0,6.0,94,0.00,,,0.00,0.0,meteohub,2013-05-09 11:12:00,
2013-05-09 01:18:00,54.0,52.5,30.06,East,90,2.0,5.0,95,0.00,,,0.00,0.0,meteohub,2013-05-09 11:18:00,
2013-05-09 01:21:00,53.8,52.2,30.06,East,86,2.0,3.0,94,0.00,,,0.00,0.0,meteohub,2013-05-09 11:21:00,
2013-05-09 01:32:00,53.4,52.3,30.06,East,87,2.0,3.0,96,0.00,,,0.00,0.0,meteohub,2013-05-09 11:32:00,
2013-05-09 01:37:00,53.6,52.2,30.06,East,80,2.0,3.0,95,0.00,,,0.00,0.0,meteohub,2013-05-09 11:37:00,
2013-05-09 01:42:00,53.2,51.8,30.06,East,90,2.0,3.0,95,0.00,,,0.00,0.0,meteohub,2013-05-09 11:42:00,
2013-05-09 01:47:00,53.2,51.8,30.05,East,86,3.0,3.0,95,0.00,,,0.00,0.0,meteohub,2013-05-09 11:47:00,
2013-05-09 01:52:00,53.6,52.5,30.05,East,90,2.0,6.0,96,0.00,,,0.00,0.0,meteohub,2013-05-09 11:52:00,
2013-05-09 01:57:00,53.8,52.3,30.05,East,86,2.0,6.0,95,0.00,,,0.00,0.0,meteohub,2013-05-09 11:57:00,
2013-05-09 02:02:00,53.6,52.0,30.05,East,88,1.0,6.0,94,0.00,,,0.00,0.0,meteohub,2013-05-09 12:02:00,
2013-05-09 02:07:00,53.4,52.0,30.05,East,94,2.0,5.0,95,0.00,,,0.00,0.0,meteohub,2013-05-09 12:07:00,
2013-05-09 02:12:00,53.8,52.3,30.05,East,90,2.0,5.0,95,0.00,,,0.00,0.0,meteohub,2013-05-09 12:12:00,
2013-05-09 02:17:00,53.4,52.0,30.05,East,90,3.0,5.0,95,0.00,,,0.00,0.0,meteohub,2013-05-09 12:17:00,
2013-05-09 02:22:00,53.8,52.7,30.05,East,82,3.0,5.0,96,0.00,,,0.00,0.0,meteohub,2013-05-09 12:22:00,
2013-05-09 02:27:00,54.0,52.3,30.05,East,89,3.0,6.0,94,0.00,,,0.00,0.0,meteohub,2013-05-09 12:27:00,
2013-05-09 02:32:00,54.0,52.3,30.05,East,83,2.0,6.0,94,0.00,,,0.00,0.0,meteohub,2013-05-09 12:32:00,
2013-05-09 02:37:00,54.1,52.2,30.05,East,84,5.0,6.0,93,0.00,,,0.00,0.0,meteohub,2013-05-09 12:37:00,
2013-05-09 02:42:00,54.0,52.0,30.05,East,84,2.0,6.0,93,0.00,,,0.00,0.0,meteohub,2013-05-09 12:42:00,
2013-05-09 02:47:00,53.6,52.0,30.05,East,84,3.0,6.0,94,0.00,,,0.00,0.0,meteohub,2013-05-09 12:47:00,
2013-05-09 02:52:00,53.6,52.0,30.05,East,81,3.0,6.0,94,0.00,,,0.00,0.0,meteohub,2013-05-09 12:52:00,
2013-05-09 02:57:00,54.0,51.6,30.05,East,101,5.0,5.0,92,0.00,,,0.00,0.0,meteohub,2013-05-09 12:57:00,
2013-05-09 03:02:00,54.1,51.8,30.05,East,83,3.0,6.0,92,0.00,,,0.00,0.0,meteohub,2013-05-09 13:02:00,
2013-05-09 03:07:00,54.1,51.6,30.04,East,81,1.0,6.0,91,0.00,,,0.00,0.0,meteohub,2013-05-09 13:07:00,
2013-05-09 03:12:00,53.8,51.3,30.05,East,85,2.0,6.0,91,0.00,,,0.00,0.0,meteohub,2013-05-09 13:12:00,
2013-05-09 03:17:00,53.2,50.9,30.05,East,98,1.0,5.0,92,0.00,,,0.00,0.0,meteohub,2013-05-09 13:17:00,
2013-05-09 03:22:00,52.5,50.5,30.05,East,96,2.0,3.0,93,0.00,,,0.00,0.0,meteohub,2013-05-09 13:22:00,
2013-05-09 03:28:00,52.5,50.9,30.05,East,82,2.0,3.0,94,0.00,,,0.00,0.0,meteohub,2013-05-09 13:28:00,
2013-05-09 03:33:00,52.3,50.7,30.05,East,89,2.0,5.0,94,0.00,,,0.00,0.0,meteohub,2013-05-09 13:33:00,
2013-05-09 03:38:00,52.2,50.5,30.05,East,92,2.0,5.0,94,0.00,,,0.00,0.0,meteohub,2013-05-09 13:38:00,
2013-05-09 03:43:00,52.2,50.5,30.05,East,90,2.0,5.0,94,0.00,,,0.00,0.0,meteohub,2013-05-09 13:43:00,
2013-05-09 03:48:00,52.3,50.7,30.05,East,86,5.0,5.0,94,0.00,,,0.00,0.0,meteohub,2013-05-09 13:48:00,
2013-05-09 03:53:00,53.1,50.7,30.05,East,84,3.0,3.0,92,0.00,,,0.00,0.0,meteohub,2013-05-09 13:53:00,
2013-05-09 03:58:00,53.2,50.9,30.05,East,93,2.0,6.0,92,0.00,,,0.00,0.0,meteohub,2013-05-09 13:58:00,
2013-05-09 04:03:00,52.5,50.2,30.05,East,86,3.0,6.0,92,0.00,,,0.00,0.0,meteohub,2013-05-09 14:03:00,
2013-05-09 04:08:00,52.2,50.2,30.05,East,84,3.0,6.0,93,0.00,,,0.00,0.0,meteohub,2013-05-09 14:08:00,
2013-05-09 04:13:00,52.3,50.7,30.06,East,86,5.0,5.0,94,0.00,,,0.00,0.0,meteohub,2013-05-09 14:13:00,
2013-05-09 04:18:00,52.5,50.5,30.06,East,88,2.0,5.0,93,0.00,,,0.00,0.0,meteohub,2013-05-09 14:18:00,
2013-05-09 04:23:00,52.9,50.9,30.06,East,80,3.0,5.0,93,0.00,,,0.00,0.0,meteohub,2013-05-09 14:23:00,
2013-05-09 04:28:00,52.9,50.5,30.06,East,96,2.0,5.0,92,0.00,,,0.00,0.0,meteohub,2013-05-09 14:28:00,
2013-05-09 04:33:00,52.5,50.2,30.06,East,83,2.0,5.0,92,0.00,,,0.00,0.0,meteohub,2013-05-09 14:33:00,
2013-05-09 04:38:00,52.2,50.2,30.06,East,86,2.0,5.0,93,0.00,,,0.00,0.0,meteohub,2013-05-09 14:38:00,
2013-05-09 04:43:00,51.8,50.2,30.06,East,89,3.0,5.0,94,0.00,,,0.00,0.0,meteohub,2013-05-09 14:43:00,
2013-05-09 04:48:00,52.3,50.7,30.06,East,86,3.0,5.0,94,0.00,,,0.00,0.0,meteohub,2013-05-09 14:48:00,
2013-05-09 04:53:00,52.5,50.5,30.06,East,84,3.0,5.0,93,0.00,,,0.00,0.0,meteohub,2013-05-09 14:53:00,
2013-05-09 04:58:00,52.9,50.5,30.06,East,82,6.0,6.0,92,0.00,,,0.00,0.0,meteohub,2013-05-09 14:58:00,
2013-05-09 05:03:00,53.1,50.5,30.06,ENE,67,4.0,7.0,91,0.00,,,0.00,0.0,meteohub,2013-05-09 15:03:00,
2013-05-09 05:08:00,53.2,50.4,30.07,East,88,2.0,7.0,90,0.00,,,0.00,0.0,meteohub,2013-05-09 15:08:00,
2013-05-09 05:13:00,53.2,50.7,30.07,East,89,2.0,7.0,91,0.00,,,0.00,0.0,meteohub,2013-05-09 15:13:00,
2013-05-09 05:18:00,52.7,50.2,30.07,East,82,3.0,6.0,91,0.00,,,0.00,0.0,meteohub,2013-05-09 15:18:00,
2013-05-09 05:23:00,52.5,50.0,30.08,East,86,2.0,6.0,91,0.00,,,0.00,0.0,meteohub,2013-05-09 15:23:00,
2013-05-09 05:28:00,52.5,49.6,30.07,East,89,3.0,6.0,90,0.00,,,0.00,0.0,meteohub,2013-05-09 15:28:00,
2013-05-09 05:33:00,52.9,50.0,30.07,East,88,1.0,6.0,90,0.00,,,0.00,0.0,meteohub,2013-05-09 15:33:00,
2013-05-09 05:38:00,52.5,50.0,30.07,East,92,3.0,6.0,91,0.00,,,0.00,0.0,meteohub,2013-05-09 15:38:00,
2013-05-09 05:43:00,52.3,49.8,30.07,East,86,3.0,6.0,91,0.00,,,0.00,0.0,meteohub,2013-05-09 15:43:00,
2013-05-09 05:48:00,52.3,49.3,30.08,East,86,5.0,6.0,89,0.00,,,0.00,0.0,meteohub,2013-05-09 15:48:00,
2013-05-09 05:53:00,52.5,49.1,30.08,NE,51,3.0,6.0,88,0.00,,,0.00,0.0,meteohub,2013-05-09 15:53:00,
2013-05-09 05:58:00,52.7,49.3,30.08,East,89,3.0,7.0,88,0.00,,,0.00,5.0,meteohub,2013-05-09 15:58:00,
2013-05-09 06:03:00,52.3,49.3,30.08,ENE,69,4.0,7.0,89,0.00,,,0.00,7.0,meteohub,2013-05-09 16:03:00,
2013-05-09 06:08:00,52.3,49.3,30.08,East,92,2.0,7.0,89,0.00,,,0.00,11.0,meteohub,2013-05-09 16:08:00,
2013-05-09 06:13:00,52.2,49.1,30.08,East,85,2.0,7.0,89,0.00,,,0.00,11.0,meteohub,2013-05-09 16:13:00,
2013-05-09 06:19:00,52.2,49.1,30.08,East,86,2.0,6.0,89,0.00,,,0.00,12.0,meteohub,2013-05-09 16:19:00,
2013-05-09 06:24:00,52.3,48.9,30.09,ENE,78,4.0,6.0,88,0.00,,,0.00,14.0,meteohub,2013-05-09 16:24:00,
2013-05-09 06:29:00,52.0,49.1,30.09,East,88,3.0,6.0,90,0.00,,,0.00,25.0,meteohub,2013-05-09 16:29:00,
2013-05-09 06:34:00,51.6,49.6,30.09,East,94,2.0,6.0,93,0.00,,,0.00,28.0,meteohub,2013-05-09 16:34:00,
2013-05-09 06:39:00,52.3,51.3,30.10,ESE,105,2.0,5.0,96,0.00,,,0.00,25.0,meteohub,2013-05-09 16:39:00,
2013-05-09 06:44:00,53.6,52.5,30.10,East,89,2.0,5.0,96,0.00,,,0.00,21.0,meteohub,2013-05-09 16:44:00,
2013-05-09 06:49:00,54.7,53.6,30.11,ESE,106,1.0,5.0,96,0.00,,,0.00,25.0,meteohub,2013-05-09 16:49:00,
2013-05-09 06:54:00,55.6,54.7,30.11,ESE,114,1.0,3.0,97,0.00,,,0.00,46.0,meteohub,2013-05-09 16:54:00,
2013-05-09 06:59:00,56.8,55.9,30.11,ENE,73,0.0,4.0,97,0.00,,,0.00,63.0,meteohub,2013-05-09 16:59:00,
2013-05-09 07:04:00,57.6,56.7,30.11,ENE,76,1.0,4.0,97,0.00,,,0.00,111.0,meteohub,2013-05-09 17:04:00,
2013-05-09 07:09:00,58.8,58.3,30.10,ENE,76,0.0,4.0,98,0.00,,,0.00,90.0,meteohub,2013-05-09 17:09:00,
2013-05-09 07:14:00,59.7,59.2,30.11,SE,140,1.0,4.0,98,0.00,,,0.00,77.0,meteohub,2013-05-09 17:14:00,
2013-05-09 07:19:00,60.4,59.9,30.11,SE,140,0.0,4.0,98,0.00,,,0.00,113.0,meteohub,2013-05-09 17:19:00,
2013-05-09 07:24:00,60.6,59.7,30.11,SE,139,0.0,4.0,97,0.00,,,0.00,141.0,meteohub,2013-05-09 17:24:00,
2013-05-09 07:29:00,61.0,60.1,30.11,SE,139,0.0,4.0,97,0.00,,,0.00,116.0,meteohub,2013-05-09 17:29:00,
2013-05-09 07:34:00,61.0,60.1,30.11,SSE,168,0.0,3.0,97,0.00,,,0.00,93.0,meteohub,2013-05-09 17:34:00,
2013-05-09 07:39:00,61.2,60.3,30.11,SSE,168,0.0,3.0,97,0.00,,,0.00,113.0,meteohub,2013-05-09 17:39:00,
2013-05-09 07:44:00,61.3,60.4,30.11,SSW,209,2.0,3.0,97,0.00,,,0.00,95.0,meteohub,2013-05-09 17:44:00,
2013-05-09 07:49:00,61.9,60.8,30.11,SSW,211,1.0,3.0,96,0.00,,,0.00,107.0,meteohub,2013-05-09 17:49:00,
2013-05-09 07:54:00,62.2,61.2,30.11,SW,229,0.0,3.0,96,0.00,,,0.00,169.0,meteohub,2013-05-09 17:54:00,
2013-05-09 07:59:00,62.6,61.2,30.11,West,261,1.0,3.0,95,0.00,,,0.00,95.0,meteohub,2013-05-09 17:59:00,
2013-05-09 08:04:00,62.4,61.0,30.11,South,171,0.0,4.0,95,0.00,,,0.00,95.0,meteohub,2013-05-09 18:04:00,
2013-05-09 08:09:00,62.4,61.0,30.12,SW,216,0.0,4.0,95,0.00,,,0.00,162.0,meteohub,2013-05-09 18:09:00,
2013-05-09 08:14:00,62.8,61.7,30.12,WSW,247,3.0,4.0,96,0.00,,,0.00,141.0,meteohub,2013-05-09 18:14:00,
2013-05-09 08:19:00,62.8,61.3,30.12,WSW,245,1.0,4.0,95,0.00,,,0.00,148.0,meteohub,2013-05-09 18:19:00,
2013-05-09 08:24:00,63.0,61.5,30.12,West,261,0.0,3.0,95,0.00,,,0.00,139.0,meteohub,2013-05-09 18:24:00,
2013-05-09 08:29:00,63.0,61.5,30.12,WNW,284,0.0,3.0,95,0.00,,,0.00,142.0,meteohub,2013-05-09 18:29:00,
2013-05-09 08:34:00,63.1,61.7,30.12,South,182,0.0,3.0,95,0.00,,,0.00,174.0,meteohub,2013-05-09 18:34:00,
2013-05-09 08:39:00,63.1,61.7,30.12,West,264,0.0,3.0,95,0.00,,,0.00,183.0,meteohub,2013-05-09 18:39:00,
2013-05-09 08:44:00,63.3,61.9,30.12,WSW,248,0.0,3.0,95,0.00,,,0.00,195.0,meteohub,2013-05-09 18:44:00,
2013-05-09 08:49:00,63.7,62.6,30.12,West,273,0.0,4.0,96,0.00,,,0.00,262.0,meteohub,2013-05-09 18:49:00,
2013-05-09 08:54:00,64.0,62.2,30.12,WNW,290,0.0,4.0,94,0.00,,,0.00,211.0,meteohub,2013-05-09 18:54:00,
2013-05-09 08:59:00,64.2,62.2,30.12,West,279,0.0,4.0,93,0.00,,,0.00,250.0,meteohub,2013-05-09 18:59:00,
2013-05-09 09:04:00,64.6,62.8,30.12,WNW,288,3.0,5.0,94,0.00,,,0.00,113.0,meteohub,2013-05-09 19:04:00,
2013-05-09 09:09:00,64.6,62.8,30.12,WNW,287,0.0,5.0,94,0.00,,,0.00,211.0,meteohub,2013-05-09 19:09:00,
2013-05-09 09:14:00,64.8,63.0,30.12,SW,232,0.0,3.0,94,0.00,,,0.00,281.0,meteohub,2013-05-09 19:14:00,
2013-05-09 09:19:00,64.8,63.0,30.12,SW,234,1.0,3.0,94,0.00,,,0.00,237.0,meteohub,2013-05-09 19:19:00,
2013-05-09 09:24:00,65.1,63.0,30.12,WSW,251,2.0,4.0,93,0.00,,,0.00,246.0,meteohub,2013-05-09 19:24:00,
2013-05-09 09:30:00,65.3,63.1,30.12,SW,227,1.0,4.0,93,0.00,,,0.00,262.0,meteohub,2013-05-09 19:30:00,
2013-05-09 09:35:00,65.3,63.1,30.12,WNW,298,1.0,6.0,93,0.00,,,0.00,225.0,meteohub,2013-05-09 19:35:00,
2013-05-09 09:40:00,65.3,63.1,30.12,WSW,240,1.0,6.0,93,0.00,,,0.00,241.0,meteohub,2013-05-09 19:40:00,
2013-05-09 09:45:00,65.5,63.3,30.12,WNW,285,2.0,6.0,93,0.00,,,0.00,295.0,meteohub,2013-05-09 19:45:00,
2013-05-09 09:50:00,65.5,63.1,30.13,WSW,256,3.0,5.0,92,0.00,,,0.00,255.0,meteohub,2013-05-09 19:50:00,
2013-05-09 09:55:00,65.7,63.5,30.12,WSW,253,2.0,8.0,93,0.00,,,0.00,257.0,meteohub,2013-05-09 19:55:00,
2013-05-09 10:00:00,65.7,63.3,30.12,WSW,242,1.0,8.0,92,0.00,,,0.00,195.0,meteohub,2013-05-09 20:00:00,
2013-05-09 10:05:00,65.7,63.0,30.13,West,263,0.0,8.0,91,0.00,,,0.00,176.0,meteohub,2013-05-09 20:05:00,
2013-05-09 10:10:00,65.7,63.0,30.13,WNW,287,0.0,7.0,91,0.00,,,0.00,290.0,meteohub,2013-05-09 20:10:00,
2013-05-09 10:15:00,65.8,62.8,30.13,West,277,2.0,7.0,90,0.00,,,0.00,362.0,meteohub,2013-05-09 20:15:00,
2013-05-09 10:20:00,66.2,63.5,30.13,West,276,0.0,7.0,91,0.00,,,0.00,246.0,meteohub,2013-05-09 20:20:00,
2013-05-09 10:25:00,66.4,63.0,30.13,WSW,249,2.0,6.0,89,0.00,,,0.00,243.0,meteohub,2013-05-09 20:25:00,
2013-05-09 10:30:00,66.2,62.8,30.12,West,275,4.0,5.0,89,0.00,,,0.00,287.0,meteohub,2013-05-09 20:30:00,
2013-05-09 10:35:00,66.0,62.6,30.12,West,267,1.0,6.0,89,0.00,,,0.00,199.0,meteohub,2013-05-09 20:35:00,
2013-05-09 10:40:00,66.2,62.8,30.12,West,269,0.0,6.0,89,0.00,,,0.00,265.0,meteohub,2013-05-09 20:40:00,
2013-05-09 10:45:00,66.4,63.0,30.12,WSW,243,0.0,5.0,89,0.00,,,0.00,257.0,meteohub,2013-05-09 20:45:00,
2013-05-09 10:50:00,66.6,63.1,30.12,WSW,242,0.0,4.0,89,0.00,,,0.00,353.0,meteohub,2013-05-09 20:50:00,
2013-05-09 10:55:00,66.9,63.3,30.12,WSW,256,3.0,4.0,88,0.00,,,0.00,345.0,meteohub,2013-05-09 20:55:00,
2013-05-09 11:00:00,67.3,63.7,30.12,SW,223,1.0,5.0,88,0.00,,,0.00,308.0,meteohub,2013-05-09 21:00:00,
2013-05-09 11:05:00,67.3,63.7,30.12,West,265,1.0,5.0,88,0.00,,,0.00,359.0,meteohub,2013-05-09 21:05:00,
2013-05-09 11:10:00,67.5,63.5,30.12,West,271,2.0,6.0,87,0.00,,,0.00,188.0,meteohub,2013-05-09 21:10:00,
2013-05-09 11:15:00,67.3,63.3,30.12,WNW,292,1.0,7.0,87,0.00,,,0.00,269.0,meteohub,2013-05-09 21:15:00,
2013-05-09 11:20:00,67.5,63.5,30.12,West,271,0.0,7.0,87,0.00,,,0.00,209.0,meteohub,2013-05-09 21:20:00,
2013-05-09 11:25:00,67.3,63.3,30.12,SW,225,2.0,7.0,87,0.00,,,0.00,165.0,meteohub,2013-05-09 21:25:00,
2013-05-09 11:30:00,67.1,63.1,30.12,WSW,251,0.0,6.0,87,0.00,,,0.00,179.0,meteohub,2013-05-09 21:30:00,
2013-05-09 11:35:00,66.9,62.6,30.12,West,263,0.0,6.0,86,0.00,,,0.00,160.0,meteohub,2013-05-09 21:35:00,
2013-05-09 11:40:00,66.9,62.6,30.12,WSW,246,2.0,6.0,86,0.00,,,0.00,257.0,meteohub,2013-05-09 21:40:00,
2013-05-09 11:45:00,67.3,63.3,30.12,West,276,0.0,3.0,87,0.00,,,0.00,316.0,meteohub,2013-05-09 21:45:00,
2013-05-09 11:50:00,67.6,63.7,30.12,WNW,293,1.0,3.0,87,0.00,,,0.00,431.0,meteohub,2013-05-09 21:50:00,
2013-05-09 11:55:00,67.8,63.5,30.11,West,274,1.0,3.0,86,0.00,,,0.00,274.0,meteohub,2013-05-09 21:55:00,
2013-05-09 12:00:00,68.2,63.5,30.11,WSW,245,0.0,4.0,85,0.00,,,0.00,281.0,meteohub,2013-05-09 22:00:00,
2013-05-09 12:05:00,68.4,63.3,30.11,WNW,290,0.0,4.0,84,0.00,,,0.00,255.0,meteohub,2013-05-09 22:05:00,
2013-05-09 12:11:00,68.0,63.0,30.11,NW,306,0.0,6.0,84,0.00,,,0.00,227.0,meteohub,2013-05-09 22:11:00,
2013-05-09 12:16:00,68.2,63.1,30.11,NW,307,1.0,6.0,84,0.00,,,0.00,427.0,meteohub,2013-05-09 22:16:00,
2013-05-09 12:21:00,68.4,63.0,30.11,West,263,1.0,6.0,83,0.00,,,0.00,468.0,meteohub,2013-05-09 22:21:00,
2013-05-09 12:26:00,68.5,62.8,30.11,WNW,299,0.0,7.0,82,0.00,,,0.00,513.0,meteohub,2013-05-09 22:26:00,
2013-05-09 12:31:00,68.9,63.1,30.11,West,281,5.0,7.0,82,0.00,,,0.00,858.0,meteohub,2013-05-09 22:31:00,
2013-05-09 12:36:00,69.3,63.1,30.10,WSW,252,0.0,7.0,81,0.00,,,0.00,418.0,meteohub,2013-05-09 22:36:00,
2013-05-09 12:41:00,69.4,62.6,30.10,WSW,255,1.0,7.0,79,0.00,,,0.00,439.0,meteohub,2013-05-09 22:41:00,
2013-05-09 12:46:00,70.3,63.5,30.10,WNW,298,2.0,7.0,79,0.00,,,0.00,888.0,meteohub,2013-05-09 22:46:00,
2013-05-09 12:51:00,70.9,63.7,30.10,SW,234,2.0,6.0,78,0.00,,,0.00,1299.0,meteohub,2013-05-09 22:51:00,
2013-05-09 12:56:00,71.1,62.4,30.10,NW,313,1.0,8.0,74,0.00,,,0.00,364.0,meteohub,2013-05-09 22:56:00,
2013-05-09 13:01:00,71.2,63.3,30.10,ENE,76,0.0,8.0,76,0.00,,,0.00,438.0,meteohub,2013-05-09 23:01:00,
2013-05-09 13:06:00,71.6,63.3,30.10,West,279,1.0,7.0,75,0.00,,,0.00,438.0,meteohub,2013-05-09 23:06:00,
2013-05-09 13:11:00,71.6,62.1,30.10,SSW,194,2.0,8.0,72,0.00,,,0.00,547.0,meteohub,2013-05-09 23:11:00,
2013-05-09 13:16:00,71.8,63.5,30.09,SW,236,1.0,8.0,75,0.00,,,0.00,1308.0,meteohub,2013-05-09 23:16:00,
2013-05-09 13:21:00,72.0,62.8,30.09,West,269,1.0,8.0,73,0.00,,,0.00,504.0,meteohub,2013-05-09 23:21:00,
2013-05-09 13:26:00,72.0,62.8,30.09,WSW,242,2.0,7.0,73,0.00,,,0.00,1299.0,meteohub,2013-05-09 23:26:00,
2013-05-09 13:31:00,72.0,62.4,30.09,WSW,255,2.0,7.0,72,0.00,,,0.00,515.0,meteohub,2013-05-09 23:31:00,
2013-05-09 13:36:00,71.8,62.2,30.09,WNW,292,0.0,7.0,72,0.00,,,0.00,492.0,meteohub,2013-05-09 23:36:00,
2013-05-09 13:41:00,72.1,62.6,30.09,SW,226,4.0,5.0,72,0.00,,,0.00,415.0,meteohub,2013-05-09 23:41:00,
2013-05-09 13:47:00,72.0,61.7,30.08,SSW,192,2.0,5.0,70,0.00,,,0.00,452.0,meteohub,2013-05-09 23:47:00,
2013-05-09 13:52:00,71.8,61.9,30.09,West,267,0.0,6.0,71,0.00,,,0.00,353.0,meteohub,2013-05-09 23:52:00,
2013-05-09 13:57:00,72.0,62.4,30.08,WSW,240,0.0,6.0,72,0.00,,,0.00,1301.0,meteohub,2013-05-09 23:57:00,
2013-05-09 14:02:00,72.3,62.4,30.08,West,277,3.0,6.0,71,0.00,,,0.00,478.0,meteohub,2013-05-10 00:02:00,
2013-05-09 14:07:00,72.3,62.4,30.08,WSW,246,1.0,8.0,71,0.00,,,0.00,561.0,meteohub,2013-05-10 00:07:00,
2013-05-09 14:12:00,72.1,62.2,30.08,WSW,246,2.0,8.0,71,0.00,,,0.00,541.0,meteohub,2013-05-10 00:12:00,
2013-05-09 14:17:00,72.1,62.2,30.07,WSW,247,4.0,8.0,71,0.00,,,0.00,524.0,meteohub,2013-05-10 00:17:00,
2013-05-09 14:22:00,72.0,62.1,30.07,West,262,2.0,8.0,71,0.00,,,0.00,376.0,meteohub,2013-05-10 00:22:00,
2013-05-09 14:27:00,72.0,62.4,30.07,WSW,244,2.0,8.0,72,0.00,,,0.00,476.0,meteohub,2013-05-10 00:27:00,
2013-05-09 14:32:00,71.8,62.2,30.07,WSW,243,1.0,6.0,72,0.00,,,0.00,364.0,meteohub,2013-05-10 00:32:00,
2013-05-09 14:37:00,71.8,63.0,30.07,West,265,3.0,6.0,74,0.00,,,0.00,336.0,meteohub,2013-05-10 00:37:00,
2013-05-09 14:42:00,71.4,62.8,30.07,SW,218,1.0,7.0,74,0.00,,,0.00,339.0,meteohub,2013-05-10 00:42:00,
2013-05-09 14:47:00,71.4,62.2,30.06,WSW,239,1.0,7.0,73,0.00,,,0.00,367.0,meteohub,2013-05-10 00:47:00,
2013-05-09 14:52:00,71.2,62.6,30.06,WSW,257,1.0,7.0,74,0.00,,,0.00,396.0,meteohub,2013-05-10 00:52:00,
2013-05-09 14:57:00,71.2,62.6,30.06,WSW,258,1.0,6.0,74,0.00,,,0.00,283.0,meteohub,2013-05-10 00:57:00,
2013-05-09 15:02:00,71.1,61.5,30.06,WNW,288,1.0,7.0,72,0.00,,,0.00,315.0,meteohub,2013-05-10 01:02:00,
2013-05-09 15:07:00,70.9,62.2,30.06,WSW,254,3.0,7.0,74,0.00,,,0.00,288.0,meteohub,2013-05-10 01:07:00,
2013-05-09 15:12:00,70.9,62.6,30.06,NW,307,2.0,7.0,75,0.00,,,0.00,902.0,meteohub,2013-05-10 01:12:00,
2013-05-09 15:17:00,70.9,62.6,30.06,WSW,247,0.0,6.0,75,0.00,,,0.00,278.0,meteohub,2013-05-10 01:17:00,
2013-05-09 15:22:00,70.9,63.0,30.06,WNW,290,3.0,6.0,76,0.00,,,0.00,253.0,meteohub,2013-05-10 01:22:00,
2013-05-09 15:27:00,70.5,63.0,30.06,WNW,300,6.0,8.0,77,0.00,,,0.00,229.0,meteohub,2013-05-10 01:27:00,
2013-05-09 15:32:00,70.2,64.0,30.06,WNW,282,0.0,8.0,81,0.00,,,0.00,149.0,meteohub,2013-05-10 01:32:00,
2013-05-09 15:37:00,69.4,63.7,30.05,West,279,4.0,8.0,82,0.00,,,0.00,144.0,meteohub,2013-05-10 01:37:00,
2013-05-09 15:42:00,68.7,63.7,30.05,West,265,2.0,7.0,84,0.00,,,0.00,137.0,meteohub,2013-05-10 01:42:00,
2013-05-09 15:47:00,68.4,64.0,30.05,NW,323,2.0,7.0,86,0.00,,,0.00,84.0,meteohub,2013-05-10 01:47:00,
2013-05-09 15:52:00,68.0,63.7,30.05,SW,222,2.0,7.0,86,0.00,,,0.00,107.0,meteohub,2013-05-10 01:52:00,
2013-05-09 15:57:00,67.8,63.5,30.05,West,277,5.0,7.0,86,0.00,,,0.00,197.0,meteohub,2013-05-10 01:57:00,
2013-05-09 16:02:00,67.8,64.2,30.05,SW,215,1.0,6.0,88,0.00,,,0.00,69.0,meteohub,2013-05-10 02:02:00,
2013-05-09 16:07:00,67.5,64.4,30.05,WSW,254,5.0,6.0,90,0.00,,,0.00,264.0,meteohub,2013-05-10 02:07:00,
2013-05-09 16:12:00,67.1,64.0,30.05,WSW,258,1.0,7.0,90,0.00,,,0.00,107.0,meteohub,2013-05-10 02:12:00,
2013-05-09 16:17:00,66.7,64.0,30.04,West,279,3.0,7.0,91,0.00,,,0.00,77.0,meteohub,2013-05-10 02:17:00,
2013-05-09 16:22:00,66.6,64.4,30.04,WNW,286,0.0,7.0,93,0.00,,,0.00,19.0,meteohub,2013-05-10 02:22:00,
2013-05-09 16:27:00,66.0,63.9,30.04,WSW,250,1.0,6.0,93,0.00,,,0.00,128.0,meteohub,2013-05-10 02:27:00,
2013-05-09 16:32:00,65.8,64.0,30.04,West,273,3.0,5.0,94,0.00,,,0.00,174.0,meteohub,2013-05-10 02:32:00,
2013-05-09 16:37:00,65.8,64.0,30.04,West,263,2.0,6.0,94,0.00,,,0.00,141.0,meteohub,2013-05-10 02:37:00,
2013-05-09 16:42:00,65.8,63.7,30.04,West,275,0.0,6.0,93,0.00,,,0.00,181.0,meteohub,2013-05-10 02:42:00,
2013-05-09 16:47:00,66.0,63.9,30.04,West,275,0.0,6.0,93,0.00,,,0.00,125.0,meteohub,2013-05-10 02:47:00,
2013-05-09 16:52:00,65.8,63.7,30.04,West,269,2.0,6.0,93,0.00,,,0.00,100.0,meteohub,2013-05-10 02:52:00,
2013-05-09 16:57:00,65.7,63.5,30.04,SW,232,4.0,5.0,93,0.00,,,0.00,188.0,meteohub,2013-05-10 02:57:00,
2013-05-09 17:02:00,66.2,64.0,30.04,West,275,2.0,6.0,93,0.00,,,0.00,278.0,meteohub,2013-05-10 03:02:00,
2013-05-09 17:07:00,66.6,64.2,30.05,WSW,252,2.0,6.0,92,0.00,,,0.00,146.0,meteohub,2013-05-10 03:07:00,
2013-05-09 17:12:00,66.6,64.2,30.05,WSW,248,0.0,5.0,92,0.00,,,0.00,309.0,meteohub,2013-05-10 03:12:00,
2013-05-09 17:17:00,66.6,63.5,30.05,West,260,1.0,7.0,90,0.00,,,0.00,142.0,meteohub,2013-05-10 03:17:00,
2013-05-09 17:22:00,66.6,63.9,30.05,SW,233,0.0,7.0,91,0.00,,,0.00,53.0,meteohub,2013-05-10 03:22:00,
2013-05-09 17:27:00,66.4,64.0,30.05,WNW,294,4.0,7.0,92,0.00,,,0.00,26.0,meteohub,2013-05-10 03:27:00,
2013-05-09 17:33:00,65.8,63.7,30.05,WSW,248,0.0,4.0,93,0.00,,,0.00,21.0,meteohub,2013-05-10 03:33:00,
2013-05-09 17:38:00,65.5,63.3,30.06,West,267,0.0,4.0,93,0.00,,,0.00,40.0,meteohub,2013-05-10 03:38:00,
2013-05-09 17:43:00,65.1,63.0,30.05,WNW,287,0.0,5.0,93,0.00,,,0.00,33.0,meteohub,2013-05-10 03:43:00,
2013-05-09 17:48:00,64.9,63.1,30.05,West,271,0.0,6.0,94,0.00,,,0.00,49.0,meteohub,2013-05-10 03:48:00,
2013-05-09 17:53:00,64.8,63.3,30.06,West,271,0.0,6.0,95,0.00,,,0.00,151.0,meteohub,2013-05-10 03:53:00,
2013-05-09 17:58:00,64.9,63.5,30.06,West,262,1.0,5.0,95,0.00,,,0.00,72.0,meteohub,2013-05-10 03:58:00,
2013-05-09 18:01:00,64.8,63.0,30.06,WSW,255,1.0,3.0,94,0.00,,,0.00,42.0,meteohub,2013-05-10 04:01:00,
2013-05-09 18:02:00,64.8,63.3,30.06,WNW,283,1.0,3.0,95,0.00,,,0.00,49.0,meteohub,2013-05-10 04:02:00,
2013-05-09 18:07:00,64.8,63.0,30.06,WSW,245,0.0,3.0,94,0.00,,,0.00,72.0,meteohub,2013-05-10 04:07:00,
2013-05-09 18:12:00,64.8,63.3,30.06,WSW,244,0.0,3.0,95,0.00,,,0.00,67.0,meteohub,2013-05-10 04:12:00,
2013-05-09 18:17:00,64.8,63.3,30.06,WSW,244,0.0,3.0,95,0.00,,,0.00,70.0,meteohub,2013-05-10 04:17:00,
2013-05-09 18:22:00,64.8,63.3,30.06,WSW,244,0.0,2.0,95,0.00,,,0.00,44.0,meteohub,2013-05-10 04:22:00,
2013-05-09 18:27:00,64.8,63.3,30.06,WSW,244,0.0,2.0,95,0.00,,,0.00,46.0,meteohub,2013-05-10 04:27:00,
2013-05-09 18:32:00,64.6,62.8,30.07,WSW,244,0.0,3.0,94,0.00,,,0.00,30.0,meteohub,2013-05-10 04:32:00,
2013-05-09 18:37:00,64.6,63.1,30.07,WSW,245,1.0,3.0,95,0.00,,,0.00,7.0,meteohub,2013-05-10 04:37:00,
2013-05-09 18:42:00,64.4,63.0,30.07,WSW,245,1.0,2.0,95,0.00,,,0.00,0.0,meteohub,2013-05-10 04:42:00,
2013-05-09 18:47:00,64.2,62.8,30.07,WSW,246,0.0,2.0,95,0.00,,,0.00,0.0,meteohub,2013-05-10 04:47:00,
2013-05-09 18:52:00,64.2,62.8,30.07,WSW,246,0.0,2.0,95,0.00,,,0.00,0.0,meteohub,2013-05-10 04:52:00,
2013-05-09 18:57:00,64.2,62.8,30.07,WSW,246,0.0,2.0,95,0.00,,,0.00,0.0,meteohub,2013-05-10 04:57:00,
2013-05-09 19:02:00,64.2,63.1,30.07,West,263,0.0,1.0,96,0.00,,,0.00,0.0,meteohub,2013-05-10 05:02:00,
2013-05-09 19:07:00,64.2,63.1,30.08,WNW,298,1.0,4.0,96,0.00,,,0.00,0.0,meteohub,2013-05-10 05:07:00,
2013-05-09 19:12:00,63.9,62.8,30.08,NW,304,4.0,6.0,96,0.00,,,0.00,0.0,meteohub,2013-05-10 05:12:00,
2013-05-09 19:17:00,63.7,62.6,30.08,WNW,284,1.0,8.0,96,0.00,,,0.00,0.0,meteohub,2013-05-10 05:17:00,
2013-05-09 19:22:00,63.3,61.9,30.08,WNW,290,0.0,8.0,95,0.00,,,0.00,0.0,meteohub,2013-05-10 05:22:00,
2013-05-09 19:27:00,63.3,61.9,30.08,WNW,291,0.0,8.0,95,0.00,,,0.00,0.0,meteohub,2013-05-10 05:27:00,
2013-05-09 19:32:00,63.3,62.2,30.09,WNW,290,0.0,3.0,96,0.00,,,0.00,0.0,meteohub,2013-05-10 05:32:00,
2013-05-09 19:37:00,63.3,62.2,30.09,NNW,341,0.0,3.0,96,0.00,,,0.00,0.0,meteohub,2013-05-10 05:37:00,
2013-05-09 19:42:00,63.3,62.2,30.09,NNW,342,0.0,2.0,96,0.00,,,0.00,0.0,meteohub,2013-05-10 05:42:00,
2013-05-09 19:47:00,63.3,62.2,30.09,NNW,341,0.0,2.0,96,0.00,,,0.00,0.0,meteohub,2013-05-10 05:47:00,
2013-05-09 19:52:00,63.1,62.2,30.10,NNW,341,0.0,2.0,97,0.00,,,0.00,0.0,meteohub,2013-05-10 05:52:00,
2013-05-09 19:57:00,63.1,62.1,30.10,NNW,341,0.0,1.0,96,0.00,,,0.00,0.0,meteohub,2013-05-10 05:57:00,
2013-05-09 20:03:00,63.1,62.1,30.10,North,0,0.0,0.0,96,0.00,,,0.00,0.0,meteohub,2013-05-10 06:03:00,
2013-05-09 20:08:00,63.1,62.1,30.11,NNW,341,0.0,0.0,96,0.00,,,0.00,0.0,meteohub,2013-05-10 06:08:00,
2013-05-09 20:13:00,63.0,61.9,30.11,NNW,341,0.0,0.0,96,0.00,,,0.00,0.0,meteohub,2013-05-10 06:13:00,
2013-05-09 20:18:00,63.0,61.9,30.11,North,0,0.0,0.0,96,0.00,,,0.00,0.0,meteohub,2013-05-10 06:18:00,
2013-05-09 20:23:00,62.8,61.3,30.11,North,5,0.0,0.0,95,0.00,,,0.00,0.0,meteohub,2013-05-10 06:23:00,
2013-05-09 20:28:00,62.4,61.3,30.11,North,5,0.0,1.0,96,0.00,,,0.00,0.0,meteohub,2013-05-10 06:28:00,
2013-05-09 20:33:00,62.2,60.8,30.12,NNE,13,1.0,1.0,95,0.00,,,0.00,0.0,meteohub,2013-05-10 06:33:00,
2013-05-09 20:38:00,61.9,60.4,30.12,ENE,75,1.0,1.0,95,0.00,,,0.00,0.0,meteohub,2013-05-10 06:38:00,
2013-05-09 20:43:00,61.3,59.5,30.12,ENE,75,0.0,2.0,94,0.00,,,0.00,0.0,meteohub,2013-05-10 06:43:00,
2013-05-09 20:48:00,61.0,59.2,30.12,ENE,75,0.0,2.0,94,0.00,,,0.00,0.0,meteohub,2013-05-10 06:48:00,
2013-05-09 20:53:00,60.6,58.8,30.12,East,85,0.0,2.0,94,0.00,,,0.00,0.0,meteohub,2013-05-10 06:53:00,
2013-05-09 20:58:00,60.3,57.9,30.12,ENE,76,2.0,2.0,92,0.00,,,0.00,0.0,meteohub,2013-05-10 06:58:00,
2013-05-09 21:03:00,59.9,57.6,30.12,ESE,103,1.0,3.0,92,0.00,,,0.00,0.0,meteohub,2013-05-10 07:03:00,
2013-05-09 21:08:00,59.7,57.0,30.13,ENE,76,2.0,3.0,91,0.00,,,0.00,0.0,meteohub,2013-05-10 07:08:00,
2013-05-09 21:13:00,59.5,56.7,30.13,ENE,71,1.0,3.0,90,0.00,,,0.00,0.0,meteohub,2013-05-10 07:13:00,
2013-05-09 21:18:00,59.5,56.8,30.13,East,80,3.0,4.0,91,0.00,,,0.00,0.0,meteohub,2013-05-10 07:18:00,
2013-05-09 21:23:00,59.4,56.5,30.14,East,94,1.0,4.0,90,0.00,,,0.00,0.0,meteohub,2013-05-10 07:23:00,
2013-05-09 21:28:00,59.2,55.9,30.14,East,79,2.0,4.0,89,0.00,,,0.00,0.0,meteohub,2013-05-10 07:28:00,
2013-05-09 21:33:00,58.8,55.6,30.14,East,82,2.0,4.0,89,0.00,,,0.00,0.0,meteohub,2013-05-10 07:33:00,
2013-05-09 21:38:00,58.6,55.8,30.15,East,86,1.0,4.0,90,0.00,,,0.00,0.0,meteohub,2013-05-10 07:38:00,
2013-05-09 21:43:00,58.5,55.2,30.14,East,85,2.0,5.0,89,0.00,,,0.00,0.0,meteohub,2013-05-10 07:43:00,
2013-05-09 21:48:00,58.5,55.2,30.15,East,85,3.0,5.0,89,0.00,,,0.00,0.0,meteohub,2013-05-10 07:48:00,
2013-05-09 21:53:00,58.3,55.0,30.15,East,98,1.0,5.0,89,0.00,,,0.00,0.0,meteohub,2013-05-10 07:53:00,
2013-05-09 21:58:00,57.7,55.2,30.15,East,80,2.0,5.0,91,0.00,,,0.00,0.0,meteohub,2013-05-10 07:58:00,
2013-05-09 22:03:00,57.6,55.0,30.15,ENE,77,2.0,4.0,91,0.00,,,0.00,0.0,meteohub,2013-05-10 08:03:00,
2013-05-09 22:09:00,57.6,55.2,30.15,ENE,78,2.0,3.0,92,0.00,,,0.00,0.0,meteohub,2013-05-10 08:09:00,
2013-05-09 22:14:00,57.6,55.2,30.15,East,89,1.0,3.0,92,0.00,,,0.00,0.0,meteohub,2013-05-10 08:14:00,
2013-05-09 22:20:00,57.6,55.2,30.16,ESE,105,2.0,3.0,92,0.00,,,0.00,0.0,meteohub,2013-05-10 08:20:00,
2013-05-09 22:25:00,57.4,55.0,30.16,East,88,1.0,3.0,92,0.00,,,0.00,0.0,meteohub,2013-05-10 08:25:00,
2013-05-09 22:30:00,57.2,54.9,30.16,East,83,1.0,3.0,92,0.00,,,0.00,0.0,meteohub,2013-05-10 08:30:00,
2013-05-09 22:35:00,57.0,54.7,30.16,ESE,108,1.0,3.0,92,0.00,,,0.00,0.0,meteohub,2013-05-10 08:35:00,
2013-05-09 22:40:00,57.0,54.7,30.16,ESE,110,3.0,3.0,92,0.00,,,0.00,0.0,meteohub,2013-05-10 08:40:00,
2013-05-09 22:45:00,57.6,55.2,30.16,SE,128,3.0,5.0,92,0.00,,,0.00,0.0,meteohub,2013-05-10 08:45:00,
2013-05-09 22:50:00,57.7,55.2,30.16,ENE,75,4.0,5.0,91,0.00,,,0.00,0.0,meteohub,2013-05-10 08:50:00,
2013-05-09 22:55:00,57.7,54.9,30.16,ENE,74,1.0,5.0,90,0.00,,,0.00,0.0,meteohub,2013-05-10 08:55:00,
2013-05-09 23:00:00,57.9,55.0,30.16,East,88,3.0,5.0,90,0.00,,,0.00,0.0,meteohub,2013-05-10 09:00:00,
2013-05-09 23:05:00,58.3,55.6,30.16,ENE,75,2.0,5.0,91,0.00,,,0.00,0.0,meteohub,2013-05-10 09:05:00,
2013-05-09 23:10:00,58.5,55.2,30.16,ENE,77,2.0,5.0,89,0.00,,,0.00,0.0,meteohub,2013-05-10 09:10:00,
2013-05-09 23:15:00,58.1,55.2,30.16,East,87,2.0,5.0,90,0.00,,,0.00,0.0,meteohub,2013-05-10 09:15:00,
2013-05-09 23:20:00,57.7,55.2,30.16,East,87,1.0,5.0,91,0.00,,,0.00,0.0,meteohub,2013-05-10 09:20:00,
2013-05-09 23:25:00,57.7,55.2,30.16,ESE,107,1.0,3.0,91,0.00,,,0.00,0.0,meteohub,2013-05-10 09:25:00,
2013-05-09 23:30:00,57.6,55.2,30.16,ESE,107,0.0,3.0,92,0.00,,,0.00,0.0,meteohub,2013-05-10 09:30:00,
2013-05-09 23:35:00,57.4,55.4,30.16,East,84,2.0,3.0,93,0.00,,,0.00,0.0,meteohub,2013-05-10 09:35:00,
2013-05-09 23:41:00,57.7,55.2,30.16,East,87,1.0,4.0,91,0.00,,,0.00,0.0,meteohub,2013-05-10 09:41:00,
2013-05-09 23:46:00,57.9,55.2,30.16,East,91,1.0,4.0,91,0.00,,,0.00,0.0,meteohub,2013-05-10 09:46:00,
2013-05-09 23:51:00,57.9,55.2,30.16,ENE,76,3.0,4.0,91,0.00,,,0.00,0.0,meteohub,2013-05-10 09:51:00,
2013-05-09 23:56:00,58.3,55.4,30.15,East,81,1.0,4.0,90,0.00,,,0.00,0.0,meteohub,2013-05-10 09:56:00,